sensor_id;sensor_type;location;lat;lon;timestamp;temperature;humidity
20528;DHT22;23612;50.894;10.700;2022-11-30T00:00:13;6.30;99.90
20528;DHT22;23612;50.894;10.700;2022-11-30T00:02:39;6.20;99.90
20528;DHT22;23612;50.894;10.700;2022-11-30T00:05:04;6.20;99.90
20528;DHT22;23612;50.894;10.700;2022-11-30T00:07:30;6.10;99.90
20528;DHT22;23612;50.894;10.700;2022-11-30T00:09:56;6.10;99.90
20528;DHT22;23612;50.894;10.700;2022-11-30T00:12:21;6.20;99.90
20528;DHT22;23612;50.894;10.700;2022-11-30T00:14:47;6.30;99.90
20528;DHT22;23612;50.894;10.700;2022-11-30T00:17:12;6.30;99.90
20528;DHT22;23612;50.894;10.700;2022-11-30T00:19:39;6.40;99.90
20528;DHT22;23612;50.894;10.700;2022-11-30T00:22:04;6.40;99.90
20528;DHT22;23612;50.894;10.700;2022-11-30T00:24:30;6.40;99.90
20528;DHT22;23612;50.894;10.700;2022-11-30T00:26:55;6.40;99.90
20528;DHT22;23612;50.894;10.700;2022-11-30T00:29:21;6.30;99.90
20528;DHT22;23612;50.894;10.700;2022-11-30T00:31:46;6.10;99.90
20528;DHT22;23612;50.894;10.700;2022-11-30T00:34:12;6.10;99.90
20528;DHT22;23612;50.894;10.700;2022-11-30T00:36:37;6.00;99.90
20528;DHT22;23612;50.894;10.700;2022-11-30T00:39:03;6.00;99.90
20528;DHT22;23612;50.894;10.700;2022-11-30T00:41:29;6.00;99.90
20528;DHT22;23612;50.894;10.700;2022-11-30T00:43:54;6.00;99.90
20528;DHT22;23612;50.894;10.700;2022-11-30T00:46:20;6.00;99.90
20528;DHT22;23612;50.894;10.700;2022-11-30T00:48:45;6.00;99.90
20528;DHT22;23612;50.894;10.700;2022-11-30T00:51:11;6.00;99.90
20528;DHT22;23612;50.894;10.700;2022-11-30T00:53:39;5.90;99.90
20528;DHT22;23612;50.894;10.700;2022-11-30T00:56:05;5.90;99.90
20528;DHT22;23612;50.894;10.700;2022-11-30T00:58:31;5.90;99.90
20528;DHT22;23612;50.894;10.700;2022-11-30T01:00:56;5.90;99.90
20528;DHT22;23612;50.894;10.700;2022-11-30T01:03:22;5.90;99.90
20528;DHT22;23612;50.894;10.700;2022-11-30T01:05:47;5.90;99.90
20528;DHT22;23612;50.894;10.700;2022-11-30T01:08:13;5.90;99.90
20528;DHT22;23612;50.894;10.700;2022-11-30T01:10:40;5.90;99.90
20528;DHT22;23612;50.894;10.700;2022-11-30T01:13:07;5.90;99.90
20528;DHT22;23612;50.894;10.700;2022-11-30T01:15:38;5.90;99.90
20528;DHT22;23612;50.894;10.700;2022-11-30T01:18:05;5.90;99.90
20528;DHT22;23612;50.894;10.700;2022-11-30T01:20:30;6.00;99.90
20528;DHT22;23612;50.894;10.700;2022-11-30T01:22:56;6.00;99.90
20528;DHT22;23612;50.894;10.700;2022-11-30T01:25:22;5.90;99.90
20528;DHT22;23612;50.894;10.700;2022-11-30T01:27:48;5.90;99.90
20528;DHT22;23612;50.894;10.700;2022-11-30T01:30:14;5.90;99.90
20528;DHT22;23612;50.894;10.700;2022-11-30T01:32:40;5.80;99.90
20528;DHT22;23612;50.894;10.700;2022-11-30T01:35:06;5.80;99.90
20528;DHT22;23612;50.894;10.700;2022-11-30T01:37:32;5.80;99.90
20528;DHT22;23612;50.894;10.700;2022-11-30T01:39:57;5.80;99.90
20528;DHT22;23612;50.894;10.700;2022-11-30T01:42:23;5.80;99.90
20528;DHT22;23612;50.894;10.700;2022-11-30T01:45:00;5.80;99.90
20528;DHT22;23612;50.894;10.700;2022-11-30T01:47:35;5.80;99.90
20528;DHT22;23612;50.894;10.700;2022-11-30T01:50:25;5.90;99.90
20528;DHT22;23612;50.894;10.700;2022-11-30T01:52:55;5.90;99.90
20528;DHT22;23612;50.894;10.700;2022-11-30T01:55:24;5.90;99.90
20528;DHT22;23612;50.894;10.700;2022-11-30T01:58:10;5.90;99.90
20528;DHT22;23612;50.894;10.700;2022-11-30T02:00:39;6.00;99.90
20528;DHT22;23612;50.894;10.700;2022-11-30T02:03:32;5.90;99.90
20528;DHT22;23612;50.894;10.700;2022-11-30T02:05:59;5.90;99.90
20528;DHT22;23612;50.894;10.700;2022-11-30T02:08:26;5.90;99.90
20528;DHT22;23612;50.894;10.700;2022-11-30T02:10:58;5.80;99.90
20528;DHT22;23612;50.894;10.700;2022-11-30T02:19:21;5.90;99.90
20528;DHT22;23612;50.894;10.700;2022-11-30T02:21:59;5.90;99.90
20528;DHT22;23612;50.894;10.700;2022-11-30T02:24:40;5.90;99.90
20528;DHT22;23612;50.894;10.700;2022-11-30T02:27:19;5.90;99.90
20528;DHT22;23612;50.894;10.700;2022-11-30T02:30:04;5.90;99.90
20528;DHT22;23612;50.894;10.700;2022-11-30T02:32:39;5.90;99.90
20528;DHT22;23612;50.894;10.700;2022-11-30T02:35:08;5.90;99.90
20528;DHT22;23612;50.894;10.700;2022-11-30T02:37:36;5.90;99.90
20528;DHT22;23612;50.894;10.700;2022-11-30T02:40:12;6.00;99.90
20528;DHT22;23612;50.894;10.700;2022-11-30T02:42:39;6.00;99.90
20528;DHT22;23612;50.894;10.700;2022-11-30T02:45:06;6.00;99.90
20528;DHT22;23612;50.894;10.700;2022-11-30T02:47:56;6.00;99.90
20528;DHT22;23612;50.894;10.700;2022-11-30T02:50:28;5.90;99.90
20528;DHT22;23612;50.894;10.700;2022-11-30T02:52:55;6.00;99.90
20528;DHT22;23612;50.894;10.700;2022-11-30T02:55:21;5.90;99.90
20528;DHT22;23612;50.894;10.700;2022-11-30T02:57:47;5.90;99.90
20528;DHT22;23612;50.894;10.700;2022-11-30T03:00:13;6.00;99.90
20528;DHT22;23612;50.894;10.700;2022-11-30T03:02:40;6.00;99.90
20528;DHT22;23612;50.894;10.700;2022-11-30T03:05:06;6.10;99.90
20528;DHT22;23612;50.894;10.700;2022-11-30T03:07:32;6.10;99.90
20528;DHT22;23612;50.894;10.700;2022-11-30T03:09:58;6.10;99.90
20528;DHT22;23612;50.894;10.700;2022-11-30T03:12:24;6.00;99.90
20528;DHT22;23612;50.894;10.700;2022-11-30T03:14:50;6.20;99.90
20528;DHT22;23612;50.894;10.700;2022-11-30T03:17:15;6.20;99.90
20528;DHT22;23612;50.894;10.700;2022-11-30T03:19:41;6.20;99.90
20528;DHT22;23612;50.894;10.700;2022-11-30T03:22:06;6.30;99.90
20528;DHT22;23612;50.894;10.700;2022-11-30T03:24:32;6.40;99.90
20528;DHT22;23612;50.894;10.700;2022-11-30T03:26:57;6.40;99.90
20528;DHT22;23612;50.894;10.700;2022-11-30T03:29:23;6.30;99.90
20528;DHT22;23612;50.894;10.700;2022-11-30T03:31:49;6.30;99.90
20528;DHT22;23612;50.894;10.700;2022-11-30T03:34:14;6.30;99.90
20528;DHT22;23612;50.894;10.700;2022-11-30T03:36:40;6.30;99.90
20528;DHT22;23612;50.894;10.700;2022-11-30T03:39:05;6.30;99.90
20528;DHT22;23612;50.894;10.700;2022-11-30T03:41:31;6.30;99.90
20528;DHT22;23612;50.894;10.700;2022-11-30T03:43:56;6.30;99.90
20528;DHT22;23612;50.894;10.700;2022-11-30T03:46:22;6.30;99.90
20528;DHT22;23612;50.894;10.700;2022-11-30T03:48:47;6.20;99.90
20528;DHT22;23612;50.894;10.700;2022-11-30T03:51:13;6.20;99.90
20528;DHT22;23612;50.894;10.700;2022-11-30T03:53:39;6.20;99.90
20528;DHT22;23612;50.894;10.700;2022-11-30T03:56:07;6.30;99.90
20528;DHT22;23612;50.894;10.700;2022-11-30T03:58:33;6.20;99.90
20528;DHT22;23612;50.894;10.700;2022-11-30T04:01:07;6.20;99.90
20528;DHT22;23612;50.894;10.700;2022-11-30T04:03:33;6.20;99.90
20528;DHT22;23612;50.894;10.700;2022-11-30T04:06:00;6.20;99.90
20528;DHT22;23612;50.894;10.700;2022-11-30T04:08:27;6.20;99.90
20528;DHT22;23612;50.894;10.700;2022-11-30T04:10:53;6.20;99.90
20528;DHT22;23612;50.894;10.700;2022-11-30T04:13:21;6.10;99.90
20528;DHT22;23612;50.894;10.700;2022-11-30T04:15:48;6.00;99.90
20528;DHT22;23612;50.894;10.700;2022-11-30T04:18:15;6.00;99.90
20528;DHT22;23612;50.894;10.700;2022-11-30T04:20:41;6.00;99.90
20528;DHT22;23612;50.894;10.700;2022-11-30T04:23:08;5.90;99.90
20528;DHT22;23612;50.894;10.700;2022-11-30T04:25:36;5.90;99.90
20528;DHT22;23612;50.894;10.700;2022-11-30T04:28:01;5.90;99.90
20528;DHT22;23612;50.894;10.700;2022-11-30T04:30:27;5.80;99.90
20528;DHT22;23612;50.894;10.700;2022-11-30T04:32:52;5.90;99.90
20528;DHT22;23612;50.894;10.700;2022-11-30T04:35:18;6.00;99.90
20528;DHT22;23612;50.894;10.700;2022-11-30T04:37:43;6.00;99.90
20528;DHT22;23612;50.894;10.700;2022-11-30T04:40:09;6.00;99.90
20528;DHT22;23612;50.894;10.700;2022-11-30T04:42:35;6.10;99.90
20528;DHT22;23612;50.894;10.700;2022-11-30T04:45:00;6.10;99.90
20528;DHT22;23612;50.894;10.700;2022-11-30T04:47:26;6.10;99.90
20528;DHT22;23612;50.894;10.700;2022-11-30T04:49:52;6.00;99.90
20528;DHT22;23612;50.894;10.700;2022-11-30T04:52:17;6.00;99.90
20528;DHT22;23612;50.894;10.700;2022-11-30T04:54:43;6.00;99.90
20528;DHT22;23612;50.894;10.700;2022-11-30T04:57:08;6.10;99.90
20528;DHT22;23612;50.894;10.700;2022-11-30T04:59:34;6.00;99.90
20528;DHT22;23612;50.894;10.700;2022-11-30T05:01:59;6.00;99.90
20528;DHT22;23612;50.894;10.700;2022-11-30T05:04:25;6.10;99.90
20528;DHT22;23612;50.894;10.700;2022-11-30T05:06:50;6.00;99.90
20528;DHT22;23612;50.894;10.700;2022-11-30T05:09:16;6.10;99.90
20528;DHT22;23612;50.894;10.700;2022-11-30T05:11:41;6.00;99.90
20528;DHT22;23612;50.894;10.700;2022-11-30T05:14:07;6.10;99.90
20528;DHT22;23612;50.894;10.700;2022-11-30T05:16:33;6.10;99.90
20528;DHT22;23612;50.894;10.700;2022-11-30T05:18:58;6.10;99.90
20528;DHT22;23612;50.894;10.700;2022-11-30T05:21:24;6.20;99.90
20528;DHT22;23612;50.894;10.700;2022-11-30T05:23:49;6.20;99.90
20528;DHT22;23612;50.894;10.700;2022-11-30T05:26:16;6.20;99.90
20528;DHT22;23612;50.894;10.700;2022-11-30T05:28:42;6.10;99.90
20528;DHT22;23612;50.894;10.700;2022-11-30T05:31:07;6.10;99.90
20528;DHT22;23612;50.894;10.700;2022-11-30T05:33:33;6.10;99.90
20528;DHT22;23612;50.894;10.700;2022-11-30T05:35:58;6.10;99.90
20528;DHT22;23612;50.894;10.700;2022-11-30T05:38:24;6.00;99.90
20528;DHT22;23612;50.894;10.700;2022-11-30T05:40:49;6.00;99.90
20528;DHT22;23612;50.894;10.700;2022-11-30T05:43:15;6.10;99.90
20528;DHT22;23612;50.894;10.700;2022-11-30T05:45:41;6.20;99.90
20528;DHT22;23612;50.894;10.700;2022-11-30T05:48:06;6.20;99.90
20528;DHT22;23612;50.894;10.700;2022-11-30T05:50:32;6.30;99.90
20528;DHT22;23612;50.894;10.700;2022-11-30T05:52:58;6.30;99.90
20528;DHT22;23612;50.894;10.700;2022-11-30T05:55:26;6.30;99.90
20528;DHT22;23612;50.894;10.700;2022-11-30T05:57:52;6.30;99.90
20528;DHT22;23612;50.894;10.700;2022-11-30T06:00:19;6.20;99.90
20528;DHT22;23612;50.894;10.700;2022-11-30T06:02:45;6.20;99.90
20528;DHT22;23612;50.894;10.700;2022-11-30T06:05:11;6.20;99.90
20528;DHT22;23612;50.894;10.700;2022-11-30T06:07:38;6.00;99.90
20528;DHT22;23612;50.894;10.700;2022-11-30T06:10:04;6.00;99.90
20528;DHT22;23612;50.894;10.700;2022-11-30T06:12:30;6.00;99.90
20528;DHT22;23612;50.894;10.700;2022-11-30T06:14:55;6.10;99.90
20528;DHT22;23612;50.894;10.700;2022-11-30T06:17:21;6.10;99.90
20528;DHT22;23612;50.894;10.700;2022-11-30T06:19:47;6.10;99.90
20528;DHT22;23612;50.894;10.700;2022-11-30T06:22:12;6.10;99.90
20528;DHT22;23612;50.894;10.700;2022-11-30T06:24:38;6.20;99.90
20528;DHT22;23612;50.894;10.700;2022-11-30T06:27:03;6.20;99.90
20528;DHT22;23612;50.894;10.700;2022-11-30T06:29:29;6.10;99.90
20528;DHT22;23612;50.894;10.700;2022-11-30T06:31:54;6.20;99.90
20528;DHT22;23612;50.894;10.700;2022-11-30T06:34:20;6.20;99.90
20528;DHT22;23612;50.894;10.700;2022-11-30T06:36:45;6.10;99.90
20528;DHT22;23612;50.894;10.700;2022-11-30T06:39:11;6.10;99.90
20528;DHT22;23612;50.894;10.700;2022-11-30T06:41:37;6.10;99.90
20528;DHT22;23612;50.894;10.700;2022-11-30T06:44:07;6.10;99.90
20528;DHT22;23612;50.894;10.700;2022-11-30T06:46:33;6.20;99.90
20528;DHT22;23612;50.894;10.700;2022-11-30T06:48:58;6.30;99.90
20528;DHT22;23612;50.894;10.700;2022-11-30T06:51:24;6.40;99.90
20528;DHT22;23612;50.894;10.700;2022-11-30T06:53:49;6.40;99.90
20528;DHT22;23612;50.894;10.700;2022-11-30T06:56:15;6.50;99.90
20528;DHT22;23612;50.894;10.700;2022-11-30T06:58:41;6.40;99.90
20528;DHT22;23612;50.894;10.700;2022-11-30T07:01:09;6.20;99.90
20528;DHT22;23612;50.894;10.700;2022-11-30T07:03:35;6.20;99.90
20528;DHT22;23612;50.894;10.700;2022-11-30T07:06:06;6.10;99.90
20528;DHT22;23612;50.894;10.700;2022-11-30T07:08:32;6.20;99.90
20528;DHT22;23612;50.894;10.700;2022-11-30T07:10:58;6.10;99.90
20528;DHT22;23612;50.894;10.700;2022-11-30T07:13:23;6.10;99.90
20528;DHT22;23612;50.894;10.700;2022-11-30T07:15:49;6.20;99.90
20528;DHT22;23612;50.894;10.700;2022-11-30T07:18:15;6.30;99.90
20528;DHT22;23612;50.894;10.700;2022-11-30T07:20:41;6.40;99.90
20528;DHT22;23612;50.894;10.700;2022-11-30T07:23:07;6.40;99.90
20528;DHT22;23612;50.894;10.700;2022-11-30T07:25:52;6.50;99.90
20528;DHT22;23612;50.894;10.700;2022-11-30T07:28:41;6.50;99.90
20528;DHT22;23612;50.894;10.700;2022-11-30T07:31:19;6.50;99.90
20528;DHT22;23612;50.894;10.700;2022-11-30T07:33:45;6.20;99.90
20528;DHT22;23612;50.894;10.700;2022-11-30T07:36:11;6.20;99.90
20528;DHT22;23612;50.894;10.700;2022-11-30T07:38:37;6.20;99.90
20528;DHT22;23612;50.894;10.700;2022-11-30T07:41:03;6.20;99.90
20528;DHT22;23612;50.894;10.700;2022-11-30T07:43:29;6.20;99.90
20528;DHT22;23612;50.894;10.700;2022-11-30T07:45:55;6.30;99.90
20528;DHT22;23612;50.894;10.700;2022-11-30T07:48:21;6.30;99.90
20528;DHT22;23612;50.894;10.700;2022-11-30T07:50:47;6.30;99.90
20528;DHT22;23612;50.894;10.700;2022-11-30T07:53:14;6.40;99.90
20528;DHT22;23612;50.894;10.700;2022-11-30T07:55:40;6.40;99.90
20528;DHT22;23612;50.894;10.700;2022-11-30T07:58:06;6.40;99.90
20528;DHT22;23612;50.894;10.700;2022-11-30T08:00:32;6.40;99.90
20528;DHT22;23612;50.894;10.700;2022-11-30T08:02:57;6.40;99.90
20528;DHT22;23612;50.894;10.700;2022-11-30T08:05:23;6.50;99.90
20528;DHT22;23612;50.894;10.700;2022-11-30T08:07:52;6.50;99.90
20528;DHT22;23612;50.894;10.700;2022-11-30T08:10:19;6.60;99.90
20528;DHT22;23612;50.894;10.700;2022-11-30T08:12:45;6.50;99.90
20528;DHT22;23612;50.894;10.700;2022-11-30T08:15:11;6.60;99.90
20528;DHT22;23612;50.894;10.700;2022-11-30T08:17:36;6.60;99.90
20528;DHT22;23612;50.894;10.700;2022-11-30T08:20:03;6.80;99.90
20528;DHT22;23612;50.894;10.700;2022-11-30T08:22:28;6.80;99.90
20528;DHT22;23612;50.894;10.700;2022-11-30T08:24:54;6.90;99.90
20528;DHT22;23612;50.894;10.700;2022-11-30T08:27:19;6.80;99.90
20528;DHT22;23612;50.894;10.700;2022-11-30T08:29:45;6.70;99.90
20528;DHT22;23612;50.894;10.700;2022-11-30T08:32:10;6.70;99.90
20528;DHT22;23612;50.894;10.700;2022-11-30T08:34:36;6.70;99.90
20528;DHT22;23612;50.894;10.700;2022-11-30T08:37:02;6.70;99.90
20528;DHT22;23612;50.894;10.700;2022-11-30T08:39:28;6.70;99.90
20528;DHT22;23612;50.894;10.700;2022-11-30T08:41:56;6.70;99.90
20528;DHT22;23612;50.894;10.700;2022-11-30T08:44:21;6.60;99.90
20528;DHT22;23612;50.894;10.700;2022-11-30T08:46:47;6.60;99.90
20528;DHT22;23612;50.894;10.700;2022-11-30T08:49:12;6.60;99.90
20528;DHT22;23612;50.894;10.700;2022-11-30T08:51:38;6.60;99.90
20528;DHT22;23612;50.894;10.700;2022-11-30T08:54:04;6.60;99.90
20528;DHT22;23612;50.894;10.700;2022-11-30T08:56:29;6.60;99.90
20528;DHT22;23612;50.894;10.700;2022-11-30T08:58:55;6.60;99.90
20528;DHT22;23612;50.894;10.700;2022-11-30T09:01:22;6.60;99.90
20528;DHT22;23612;50.894;10.700;2022-11-30T09:03:51;6.60;99.90
20528;DHT22;23612;50.894;10.700;2022-11-30T09:06:19;6.50;99.90
20528;DHT22;23612;50.894;10.700;2022-11-30T09:08:46;6.50;99.90
20528;DHT22;23612;50.894;10.700;2022-11-30T09:11:23;6.50;99.90
20528;DHT22;23612;50.894;10.700;2022-11-30T09:13:51;6.60;99.90
20528;DHT22;23612;50.894;10.700;2022-11-30T09:16:18;6.60;99.90
20528;DHT22;23612;50.894;10.700;2022-11-30T09:18:45;6.60;99.90
20528;DHT22;23612;50.894;10.700;2022-11-30T09:21:13;6.50;99.90
20528;DHT22;23612;50.894;10.700;2022-11-30T09:23:39;6.60;99.90
20528;DHT22;23612;50.894;10.700;2022-11-30T09:26:07;6.60;99.90
20528;DHT22;23612;50.894;10.700;2022-11-30T09:28:34;6.70;99.90
20528;DHT22;23612;50.894;10.700;2022-11-30T09:31:04;6.70;99.90
20528;DHT22;23612;50.894;10.700;2022-11-30T09:33:31;6.70;99.90
20528;DHT22;23612;50.894;10.700;2022-11-30T09:36:00;6.80;99.90
20528;DHT22;23612;50.894;10.700;2022-11-30T09:38:26;6.80;99.90
20528;DHT22;23612;50.894;10.700;2022-11-30T09:41:00;6.70;99.90
20528;DHT22;23612;50.894;10.700;2022-11-30T09:51:54;6.80;99.90
20528;DHT22;23612;50.894;10.700;2022-11-30T09:54:29;6.80;99.90
20528;DHT22;23612;50.894;10.700;2022-11-30T09:57:28;6.90;99.90
20528;DHT22;23612;50.894;10.700;2022-11-30T10:00:03;6.80;99.90
20528;DHT22;23612;50.894;10.700;2022-11-30T10:02:31;6.90;99.90
20528;DHT22;23612;50.894;10.700;2022-11-30T10:04:58;6.80;99.90
20528;DHT22;23612;50.894;10.700;2022-11-30T10:10:43;6.80;99.90
20528;DHT22;23612;50.894;10.700;2022-11-30T10:13:55;6.80;99.90
20528;DHT22;23612;50.894;10.700;2022-11-30T10:16:37;6.80;99.90
20528;DHT22;23612;50.894;10.700;2022-11-30T10:24:57;6.70;99.90
20528;DHT22;23612;50.894;10.700;2022-11-30T10:27:33;6.60;99.90
20528;DHT22;23612;50.894;10.700;2022-11-30T10:30:00;6.60;99.90
20528;DHT22;23612;50.894;10.700;2022-11-30T10:32:36;6.60;99.90
20528;DHT22;23612;50.894;10.700;2022-11-30T10:35:38;6.70;99.90
20528;DHT22;23612;50.894;10.700;2022-11-30T10:38:12;6.70;99.90
20528;DHT22;23612;50.894;10.700;2022-11-30T10:43:24;6.70;99.90
20528;DHT22;23612;50.894;10.700;2022-11-30T10:45:51;6.70;99.90
20528;DHT22;23612;50.894;10.700;2022-11-30T10:50:49;6.60;99.90
20528;DHT22;23612;50.894;10.700;2022-11-30T10:53:15;6.60;99.90
20528;DHT22;23612;50.894;10.700;2022-11-30T10:55:43;6.70;99.90
20528;DHT22;23612;50.894;10.700;2022-11-30T10:58:20;6.70;99.90
20528;DHT22;23612;50.894;10.700;2022-11-30T11:00:57;6.70;99.90
20528;DHT22;23612;50.894;10.700;2022-11-30T11:03:25;6.80;99.90
20528;DHT22;23612;50.894;10.700;2022-11-30T11:06:21;6.80;99.90
20528;DHT22;23612;50.894;10.700;2022-11-30T11:08:47;6.80;99.90
20528;DHT22;23612;50.894;10.700;2022-11-30T11:11:32;6.80;99.90
20528;DHT22;23612;50.894;10.700;2022-11-30T11:14:16;6.80;99.90
20528;DHT22;23612;50.894;10.700;2022-11-30T11:17:00;6.90;99.90
20528;DHT22;23612;50.894;10.700;2022-11-30T11:19:40;6.90;99.90
20528;DHT22;23612;50.894;10.700;2022-11-30T11:24:40;6.80;99.90
20528;DHT22;23612;50.894;10.700;2022-11-30T11:27:30;6.80;99.90
20528;DHT22;23612;50.894;10.700;2022-11-30T11:30:09;6.70;99.90
20528;DHT22;23612;50.894;10.700;2022-11-30T11:32:36;6.70;99.90
20528;DHT22;23612;50.894;10.700;2022-11-30T11:35:02;6.70;99.90
20528;DHT22;23612;50.894;10.700;2022-11-30T11:37:30;6.60;99.90
20528;DHT22;23612;50.894;10.700;2022-11-30T11:45:29;6.70;99.90
20528;DHT22;23612;50.894;10.700;2022-11-30T11:48:02;6.80;99.90
20528;DHT22;23612;50.894;10.700;2022-11-30T11:50:32;6.80;99.90
20528;DHT22;23612;50.894;10.700;2022-11-30T11:55:41;6.80;99.90
20528;DHT22;23612;50.894;10.700;2022-11-30T11:58:13;6.80;99.90
20528;DHT22;23612;50.894;10.700;2022-11-30T12:00:40;6.90;99.90
20528;DHT22;23612;50.894;10.700;2022-11-30T12:03:40;6.90;99.90
20528;DHT22;23612;50.894;10.700;2022-11-30T12:06:14;6.90;99.90
20528;DHT22;23612;50.894;10.700;2022-11-30T12:08:56;7.00;99.90
20528;DHT22;23612;50.894;10.700;2022-11-30T12:11:41;6.90;99.90
20528;DHT22;23612;50.894;10.700;2022-11-30T12:14:11;7.00;99.90
20528;DHT22;23612;50.894;10.700;2022-11-30T12:25:29;7.00;99.90
20528;DHT22;23612;50.894;10.700;2022-11-30T12:31:03;7.00;99.90
20528;DHT22;23612;50.894;10.700;2022-11-30T12:33:39;7.10;99.90
20528;DHT22;23612;50.894;10.700;2022-11-30T12:36:18;7.10;99.90
20528;DHT22;23612;50.894;10.700;2022-11-30T12:39:08;7.10;99.90
20528;DHT22;23612;50.894;10.700;2022-11-30T12:50:15;7.00;99.90
20528;DHT22;23612;50.894;10.700;2022-11-30T13:05:59;7.10;99.90
20528;DHT22;23612;50.894;10.700;2022-11-30T13:08:33;7.10;99.90
20528;DHT22;23612;50.894;10.700;2022-11-30T13:11:05;7.00;99.90
20528;DHT22;23612;50.894;10.700;2022-11-30T13:13:34;7.00;99.90
20528;DHT22;23612;50.894;10.700;2022-11-30T13:16:03;7.00;99.90
20528;DHT22;23612;50.894;10.700;2022-11-30T13:18:30;7.00;99.90
20528;DHT22;23612;50.894;10.700;2022-11-30T13:21:37;6.90;99.90
20528;DHT22;23612;50.894;10.700;2022-11-30T13:24:41;6.90;99.90
20528;DHT22;23612;50.894;10.700;2022-11-30T13:27:19;6.90;99.90
20528;DHT22;23612;50.894;10.700;2022-11-30T13:30:18;6.90;99.90
20528;DHT22;23612;50.894;10.700;2022-11-30T13:32:45;6.80;99.90
20528;DHT22;23612;50.894;10.700;2022-11-30T13:38:04;6.80;99.90
20528;DHT22;23612;50.894;10.700;2022-11-30T13:40:30;6.80;99.90
20528;DHT22;23612;50.894;10.700;2022-11-30T13:42:56;6.80;99.90
20528;DHT22;23612;50.894;10.700;2022-11-30T13:45:30;6.70;99.90
20528;DHT22;23612;50.894;10.700;2022-11-30T13:47:56;6.70;99.90
20528;DHT22;23612;50.894;10.700;2022-11-30T13:50:36;6.60;99.90
20528;DHT22;23612;50.894;10.700;2022-11-30T14:01:49;6.60;99.90
20528;DHT22;23612;50.894;10.700;2022-11-30T14:04:25;6.60;99.90
20528;DHT22;23612;50.894;10.700;2022-11-30T14:06:54;6.60;99.90
20528;DHT22;23612;50.894;10.700;2022-11-30T14:14:58;6.50;99.90
20528;DHT22;23612;50.894;10.700;2022-11-30T14:17:26;6.60;99.90
20528;DHT22;23612;50.894;10.700;2022-11-30T14:19:59;6.60;99.90
20528;DHT22;23612;50.894;10.700;2022-11-30T14:22:27;6.60;99.90
20528;DHT22;23612;50.894;10.700;2022-11-30T14:24:54;6.60;99.90
20528;DHT22;23612;50.894;10.700;2022-11-30T14:27:22;6.60;99.90
20528;DHT22;23612;50.894;10.700;2022-11-30T14:29:52;6.60;99.90
20528;DHT22;23612;50.894;10.700;2022-11-30T14:32:32;6.60;99.90
20528;DHT22;23612;50.894;10.700;2022-11-30T14:35:10;6.60;99.90
20528;DHT22;23612;50.894;10.700;2022-11-30T14:40:15;6.50;99.90
20528;DHT22;23612;50.894;10.700;2022-11-30T14:42:47;6.40;99.90
20528;DHT22;23612;50.894;10.700;2022-11-30T14:45:24;6.40;99.90
20528;DHT22;23612;50.894;10.700;2022-11-30T14:48:04;6.40;99.90
20528;DHT22;23612;50.894;10.700;2022-11-30T14:50:29;6.40;99.90
20528;DHT22;23612;50.894;10.700;2022-11-30T14:56:36;6.40;99.90
20528;DHT22;23612;50.894;10.700;2022-11-30T15:01:19;6.40;99.90
20528;DHT22;23612;50.894;10.700;2022-11-30T15:03:47;6.40;99.90
20528;DHT22;23612;50.894;10.700;2022-11-30T15:06:15;6.40;99.90
20528;DHT22;23612;50.894;10.700;2022-11-30T15:08:50;6.40;99.90
20528;DHT22;23612;50.894;10.700;2022-11-30T15:11:16;6.40;99.90
20528;DHT22;23612;50.894;10.700;2022-11-30T15:13:46;6.40;99.90
20528;DHT22;23612;50.894;10.700;2022-11-30T15:16:30;6.40;99.90
20528;DHT22;23612;50.894;10.700;2022-11-30T15:18:57;6.40;99.90
20528;DHT22;23612;50.894;10.700;2022-11-30T15:21:29;6.30;99.90
20528;DHT22;23612;50.894;10.700;2022-11-30T15:23:57;6.30;99.90
20528;DHT22;23612;50.894;10.700;2022-11-30T15:29:16;6.20;99.90
20528;DHT22;23612;50.894;10.700;2022-11-30T15:31:44;6.10;99.90
20528;DHT22;23612;50.894;10.700;2022-11-30T15:36:58;6.10;99.90
20528;DHT22;23612;50.894;10.700;2022-11-30T15:39:26;6.10;99.90
20528;DHT22;23612;50.894;10.700;2022-11-30T15:41:58;6.10;99.90
20528;DHT22;23612;50.894;10.700;2022-11-30T15:47:02;6.10;99.90
20528;DHT22;23612;50.894;10.700;2022-11-30T15:49:29;6.00;99.90
20528;DHT22;23612;50.894;10.700;2022-11-30T15:52:15;6.00;99.90
20528;DHT22;23612;50.894;10.700;2022-11-30T15:54:55;5.90;99.90
20528;DHT22;23612;50.894;10.700;2022-11-30T15:57:23;5.90;99.90
20528;DHT22;23612;50.894;10.700;2022-11-30T16:02:33;6.00;99.90
20528;DHT22;23612;50.894;10.700;2022-11-30T16:05:20;6.00;99.90
20528;DHT22;23612;50.894;10.700;2022-11-30T16:07:49;6.00;99.90
20528;DHT22;23612;50.894;10.700;2022-11-30T16:12:43;6.00;99.90
20528;DHT22;23612;50.894;10.700;2022-11-30T16:15:23;6.00;99.90
20528;DHT22;23612;50.894;10.700;2022-11-30T16:17:49;5.90;99.90
20528;DHT22;23612;50.894;10.700;2022-11-30T16:20:15;6.00;99.90
20528;DHT22;23612;50.894;10.700;2022-11-30T16:22:45;6.00;99.90
20528;DHT22;23612;50.894;10.700;2022-11-30T16:25:16;5.90;99.90
20528;DHT22;23612;50.894;10.700;2022-11-30T16:27:42;5.90;99.90
20528;DHT22;23612;50.894;10.700;2022-11-30T16:30:12;5.90;99.90
20528;DHT22;23612;50.894;10.700;2022-11-30T16:32:38;5.80;99.90
20528;DHT22;23612;50.894;10.700;2022-11-30T16:37:46;5.70;99.90
20528;DHT22;23612;50.894;10.700;2022-11-30T16:40:12;5.70;99.90
20528;DHT22;23612;50.894;10.700;2022-11-30T16:42:38;5.80;99.90
20528;DHT22;23612;50.894;10.700;2022-11-30T16:45:04;5.70;99.90
20528;DHT22;23612;50.894;10.700;2022-11-30T16:47:29;5.70;99.90
20528;DHT22;23612;50.894;10.700;2022-11-30T16:49:55;5.70;99.90
20528;DHT22;23612;50.894;10.700;2022-11-30T16:52:21;5.70;99.90
20528;DHT22;23612;50.894;10.700;2022-11-30T16:54:46;5.70;99.90
20528;DHT22;23612;50.894;10.700;2022-11-30T16:57:12;5.60;99.90
20528;DHT22;23612;50.894;10.700;2022-11-30T16:59:37;5.70;99.90
20528;DHT22;23612;50.894;10.700;2022-11-30T17:02:03;5.60;99.90
20528;DHT22;23612;50.894;10.700;2022-11-30T17:04:28;5.60;99.90
20528;DHT22;23612;50.894;10.700;2022-11-30T17:06:55;5.60;99.90
20528;DHT22;23612;50.894;10.700;2022-11-30T17:09:21;5.50;99.90
20528;DHT22;23612;50.894;10.700;2022-11-30T17:11:47;5.50;99.90
20528;DHT22;23612;50.894;10.700;2022-11-30T17:14:17;5.50;99.90
20528;DHT22;23612;50.894;10.700;2022-11-30T17:16:43;5.40;99.90
20528;DHT22;23612;50.894;10.700;2022-11-30T17:19:09;5.40;99.90
20528;DHT22;23612;50.894;10.700;2022-11-30T17:21:36;5.40;99.90
20528;DHT22;23612;50.894;10.700;2022-11-30T17:24:03;5.40;99.90
20528;DHT22;23612;50.894;10.700;2022-11-30T17:26:28;5.40;99.90
20528;DHT22;23612;50.894;10.700;2022-11-30T17:28:54;5.40;99.90
20528;DHT22;23612;50.894;10.700;2022-11-30T17:31:20;5.40;99.90
20528;DHT22;23612;50.894;10.700;2022-11-30T17:33:46;5.40;99.90
20528;DHT22;23612;50.894;10.700;2022-11-30T17:36:13;5.40;99.90